DLH6DE EDDB-EDDM
Flight info
| Callsign | DLH6DE |
|---|---|
| Flight time | 0h 50m |
| Altitude | 28000 |
| Route | LUROS3Q/06R LUROS Y211 BEBKU Z36 MAREM DCT VESUB T106 TUSTO T108 LANDU LANDU2B |
| Aircraft | A319/M-SDE3FGHIRWY/LB1 |
Departure
| Time | 2026-05-05 18:44 |
|---|---|
| Airport | Berlin Brandenburg Airport (EDDB) |
Arrival
| Time | 2026-05-05 19:35 |
|---|---|
| Airport | Munich Airport (EDDM) |
| Time | Latitude | Longitude | Altitude | Speed | Heading |
|---|---|---|---|---|---|
| 2026-05-05 18:04 | 52.36249 | 13.50685 | 155 ft | 0 kts | 69° |
| 2026-05-05 18:35 | 52.36245 | 13.50667 | 155 ft | 4 kts | 67° |
| 2026-05-05 18:35 | 52.36234 | 13.50627 | 155 ft | 4 kts | 64° |
| 2026-05-05 18:35 | 52.36222 | 13.50587 | 155 ft | 4 kts | 71° |
| 2026-05-05 18:35 | 52.36218 | 13.50550 | 155 ft | 4 kts | 124° |
| 2026-05-05 18:36 | 52.36222 | 13.50542 | 155 ft | 0 kts | 159° |
| 2026-05-05 18:38 | 52.36221 | 13.50542 | 155 ft | 0 kts | 159° |
| 2026-05-05 18:38 | 52.36200 | 13.50555 | 155 ft | 6 kts | 159° |
| 2026-05-05 18:38 | 52.36149 | 13.50588 | 155 ft | 10 kts | 159° |
| 2026-05-05 18:39 | 52.36078 | 13.50633 | 155 ft | 11 kts | 159° |
| 2026-05-05 18:39 | 52.36000 | 13.50681 | 155 ft | 13 kts | 159° |
| 2026-05-05 18:39 | 52.35915 | 13.50714 | 154 ft | 13 kts | 188° |
| 2026-05-05 18:39 | 52.35846 | 13.50634 | 154 ft | 8 kts | 192° |
| 2026-05-05 18:40 | 52.35843 | 13.50633 | 154 ft | 0 kts | 188° |
| 2026-05-05 18:40 | 52.35840 | 13.50633 | 154 ft | 2 kts | 186° |
| 2026-05-05 18:40 | 52.35797 | 13.50641 | 154 ft | 10 kts | 187° |
| 2026-05-05 18:40 | 52.35747 | 13.50523 | 154 ft | 15 kts | 250° |
| 2026-05-05 18:41 | 52.35708 | 13.50357 | 154 ft | 17 kts | 249° |
| 2026-05-05 18:41 | 52.35664 | 13.50163 | 154 ft | 18 kts | 249° |
| 2026-05-05 18:41 | 52.35617 | 13.49967 | 154 ft | 19 kts | 249° |
| 2026-05-05 18:41 | 52.35567 | 13.49755 | 154 ft | 21 kts | 249° |
| 2026-05-05 18:42 | 52.35513 | 13.49527 | 154 ft | 21 kts | 249° |
| 2026-05-05 18:42 | 52.35458 | 13.49294 | 154 ft | 23 kts | 249° |
| 2026-05-05 18:42 | 52.35399 | 13.49051 | 154 ft | 23 kts | 248° |
| 2026-05-05 18:42 | 52.35341 | 13.48804 | 154 ft | 23 kts | 248° |
| 2026-05-05 18:43 | 52.35282 | 13.48559 | 154 ft | 23 kts | 249° |
| 2026-05-05 18:43 | 52.35162 | 13.48521 | 154 ft | 21 kts | 155° |
| 2026-05-05 18:43 | 52.35093 | 13.48710 | 154 ft | 22 kts | 96° |
| 2026-05-05 18:43 | 52.35074 | 13.48979 | 154 ft | 27 kts | 90° |
| 2026-05-05 18:44 | 52.35139 | 13.49350 | 154 ft | 47 kts | 69° |
| 2026-05-05 18:44 | 52.35347 | 13.50229 | 155 ft | 116 kts | 69° |
| 2026-05-05 18:44 | 52.35698 | 13.51698 | 337 ft | 149 kts | 69° |
| 2026-05-05 18:44 | 52.35957 | 13.53324 | 960 ft | 151 kts | 86° |
| 2026-05-05 18:45 | 52.35630 | 13.54993 | 1480 ft | 167 kts | 127° |
| 2026-05-05 18:45 | 52.34666 | 13.56259 | 1908 ft | 190 kts | 145° |
| 2026-05-05 18:45 | 52.33492 | 13.57493 | 2344 ft | 206 kts | 146° |
| 2026-05-05 18:45 | 52.32235 | 13.58794 | 2867 ft | 221 kts | 147° |
| 2026-05-05 18:46 | 52.31018 | 13.60295 | 3812 ft | 216 kts | 129° |
| 2026-05-05 18:46 | 52.30479 | 13.62533 | 4600 ft | 219 kts | 92° |
| 2026-05-05 18:46 | 52.30875 | 13.65054 | 5003 ft | 241 kts | 65° |
| 2026-05-05 18:46 | 52.31571 | 13.67559 | 5869 ft | 245 kts | 67° |
| 2026-05-05 18:47 | 52.32215 | 13.70167 | 6657 ft | 250 kts | 69° |
| 2026-05-05 18:47 | 52.32803 | 13.72864 | 7484 ft | 254 kts | 74° |
| 2026-05-05 18:47 | 52.32998 | 13.75763 | 8106 ft | 267 kts | 96° |
| 2026-05-05 18:47 | 52.32752 | 13.78901 | 8541 ft | 288 kts | 97° |
| 2026-05-05 18:48 | 52.32585 | 13.82201 | 9364 ft | 294 kts | 95° |
| 2026-05-05 18:48 | 52.32462 | 13.85574 | 10169 ft | 299 kts | 94° |
| 2026-05-05 18:48 | 52.32355 | 13.88957 | 10936 ft | 304 kts | 94° |
| 2026-05-05 18:48 | 52.32246 | 13.92439 | 11714 ft | 309 kts | 95° |
| 2026-05-05 18:49 | 52.32131 | 13.95963 | 12499 ft | 313 kts | 95° |
| 2026-05-05 18:49 | 52.32007 | 13.99540 | 13265 ft | 318 kts | 96° |
| 2026-05-05 18:49 | 52.31608 | 14.03093 | 13941 ft | 319 kts | 114° |
| 2026-05-05 18:49 | 52.30518 | 14.06231 | 14482 ft | 323 kts | 133° |
| 2026-05-05 18:50 | 52.28765 | 14.08610 | 14633 ft | 338 kts | 156° |
| 2026-05-05 18:50 | 52.26478 | 14.09722 | 14760 ft | 351 kts | 179° |
| 2026-05-05 18:50 | 52.24009 | 14.09361 | 14985 ft | 364 kts | 193° |
| 2026-05-05 18:50 | 52.21493 | 14.08617 | 15513 ft | 370 kts | 193° |
| 2026-05-05 18:51 | 52.18945 | 14.07864 | 16143 ft | 374 kts | 192° |
| 2026-05-05 18:51 | 52.16369 | 14.07111 | 16753 ft | 377 kts | 192° |
| 2026-05-05 18:51 | 52.13774 | 14.06362 | 17420 ft | 380 kts | 192° |
| 2026-05-05 18:51 | 52.11157 | 14.05610 | 18061 ft | 383 kts | 192° |
| 2026-05-05 18:52 | 52.08523 | 14.04852 | 18616 ft | 386 kts | 192° |
| 2026-05-05 18:52 | 52.05871 | 14.04089 | 19169 ft | 389 kts | 192° |
| 2026-05-05 18:52 | 52.03201 | 14.03317 | 19712 ft | 391 kts | 192° |
| 2026-05-05 18:52 | 52.00511 | 14.02541 | 20237 ft | 394 kts | 192° |
| 2026-05-05 18:53 | 51.97834 | 14.01771 | 20754 ft | 396 kts | 192° |
| 2026-05-05 18:53 | 51.95109 | 14.00987 | 21265 ft | 399 kts | 192° |
| 2026-05-05 18:53 | 51.92371 | 14.00202 | 21753 ft | 401 kts | 192° |
| 2026-05-05 18:53 | 51.89607 | 13.99413 | 22248 ft | 404 kts | 192° |
| 2026-05-05 18:54 | 51.86833 | 13.98627 | 22729 ft | 406 kts | 192° |
| 2026-05-05 18:54 | 51.84045 | 13.97838 | 23197 ft | 408 kts | 192° |
| 2026-05-05 18:54 | 51.81234 | 13.97044 | 23605 ft | 411 kts | 192° |
| 2026-05-05 18:54 | 51.79331 | 13.96505 | 23745 ft | 412 kts | 192° |
| 2026-05-05 18:55 | 51.76543 | 13.95715 | 23811 ft | 411 kts | 192° |
| 2026-05-05 18:55 | 51.73689 | 13.94905 | 23823 ft | 411 kts | 192° |
| 2026-05-05 18:55 | 51.70876 | 13.94108 | 23818 ft | 411 kts | 192° |
| 2026-05-05 18:55 | 51.68078 | 13.93319 | 24125 ft | 414 kts | 192° |
| 2026-05-05 18:56 | 51.65235 | 13.92521 | 24528 ft | 416 kts | 192° |
| 2026-05-05 18:56 | 51.62374 | 13.91721 | 24908 ft | 418 kts | 192° |
| 2026-05-05 18:56 | 51.59495 | 13.90918 | 25274 ft | 421 kts | 192° |
| 2026-05-05 18:56 | 51.56601 | 13.90110 | 25633 ft | 423 kts | 192° |
| 2026-05-05 18:57 | 51.53693 | 13.89296 | 25992 ft | 425 kts | 192° |
| 2026-05-05 18:57 | 51.50774 | 13.88480 | 26346 ft | 427 kts | 192° |
| 2026-05-05 18:57 | 51.47840 | 13.87658 | 26683 ft | 429 kts | 192° |
| 2026-05-05 18:57 | 51.44891 | 13.86831 | 27008 ft | 431 kts | 192° |
| 2026-05-05 18:58 | 51.41924 | 13.85988 | 27349 ft | 433 kts | 192° |
| 2026-05-05 18:58 | 51.38951 | 13.85129 | 27673 ft | 435 kts | 192° |
| 2026-05-05 18:58 | 51.35965 | 13.84262 | 27790 ft | 436 kts | 192° |
| 2026-05-05 18:58 | 51.32985 | 13.83395 | 27815 ft | 435 kts | 192° |
| 2026-05-05 18:59 | 51.30006 | 13.82531 | 27811 ft | 435 kts | 192° |
| 2026-05-05 18:59 | 51.27035 | 13.81674 | 27811 ft | 434 kts | 192° |
| 2026-05-05 18:59 | 51.24060 | 13.80818 | 27811 ft | 434 kts | 192° |
| 2026-05-05 18:59 | 51.21087 | 13.79968 | 27809 ft | 433 kts | 192° |
| 2026-05-05 19:00 | 51.18149 | 13.78949 | 27806 ft | 431 kts | 197° |
| 2026-05-05 19:00 | 51.15254 | 13.77663 | 27811 ft | 431 kts | 197° |
| 2026-05-05 19:00 | 51.12377 | 13.76328 | 27811 ft | 431 kts | 198° |
| 2026-05-05 19:00 | 51.09504 | 13.74958 | 27811 ft | 431 kts | 198° |
| 2026-05-05 19:01 | 51.06671 | 13.73595 | 27813 ft | 431 kts | 198° |
| 2026-05-05 19:01 | 51.03766 | 13.72205 | 27812 ft | 431 kts | 198° |
| 2026-05-05 19:01 | 51.00901 | 13.70850 | 27809 ft | 431 kts | 198° |
| 2026-05-05 19:01 | 50.98066 | 13.69519 | 27806 ft | 430 kts | 197° |
| 2026-05-05 19:02 | 50.95193 | 13.68188 | 27810 ft | 430 kts | 197° |
| 2026-05-05 19:02 | 50.92320 | 13.66865 | 27812 ft | 429 kts | 197° |
| 2026-05-05 19:02 | 50.89453 | 13.65545 | 27809 ft | 429 kts | 197° |
| 2026-05-05 19:02 | 50.86582 | 13.64227 | 27807 ft | 429 kts | 197° |
| 2026-05-05 19:03 | 50.83717 | 13.62920 | 27805 ft | 429 kts | 197° |
| 2026-05-05 19:03 | 50.80850 | 13.61623 | 27799 ft | 429 kts | 197° |
| 2026-05-05 19:03 | 50.77977 | 13.60327 | 27796 ft | 429 kts | 197° |
| 2026-05-05 19:03 | 50.75111 | 13.59032 | 27784 ft | 429 kts | 197° |
| 2026-05-05 19:04 | 50.72239 | 13.57734 | 27778 ft | 429 kts | 197° |
| 2026-05-05 19:04 | 50.69366 | 13.56431 | 27772 ft | 429 kts | 197° |
| 2026-05-05 19:04 | 50.66495 | 13.55122 | 27772 ft | 429 kts | 197° |
| 2026-05-05 19:04 | 50.63626 | 13.53810 | 27769 ft | 429 kts | 197° |
| 2026-05-05 19:05 | 50.60755 | 13.52497 | 27763 ft | 429 kts | 197° |
| 2026-05-05 19:05 | 50.57890 | 13.51186 | 27765 ft | 429 kts | 197° |
| 2026-05-05 19:05 | 50.55016 | 13.49871 | 27766 ft | 430 kts | 197° |
| 2026-05-05 19:05 | 50.52140 | 13.48562 | 27759 ft | 430 kts | 197° |
| 2026-05-05 19:06 | 50.49265 | 13.47259 | 27764 ft | 430 kts | 197° |
| 2026-05-05 19:06 | 50.46429 | 13.45975 | 27764 ft | 430 kts | 197° |
| 2026-05-05 19:06 | 50.43517 | 13.44659 | 27765 ft | 430 kts | 197° |
| 2026-05-05 19:06 | 50.40674 | 13.43376 | 27766 ft | 430 kts | 197° |
| 2026-05-05 19:07 | 50.37793 | 13.42078 | 27760 ft | 430 kts | 197° |
| 2026-05-05 19:07 | 50.34915 | 13.40783 | 27755 ft | 430 kts | 197° |
| 2026-05-05 19:07 | 50.32032 | 13.39486 | 27756 ft | 430 kts | 197° |
| 2026-05-05 19:07 | 50.29156 | 13.38194 | 27757 ft | 430 kts | 197° |
| 2026-05-05 19:08 | 50.26275 | 13.36901 | 27757 ft | 430 kts | 197° |
| 2026-05-05 19:08 | 50.23396 | 13.35613 | 27757 ft | 430 kts | 197° |
| 2026-05-05 19:08 | 50.20518 | 13.34329 | 27758 ft | 430 kts | 197° |
| 2026-05-05 19:08 | 50.17638 | 13.33043 | 27761 ft | 430 kts | 197° |
| 2026-05-05 19:09 | 50.14760 | 13.31754 | 27759 ft | 431 kts | 197° |
| 2026-05-05 19:09 | 50.11882 | 13.30465 | 27759 ft | 431 kts | 197° |
| 2026-05-05 19:09 | 50.08992 | 13.29173 | 27756 ft | 431 kts | 197° |
| 2026-05-05 19:09 | 50.06112 | 13.27887 | 27755 ft | 431 kts | 197° |
| 2026-05-05 19:10 | 50.03233 | 13.26605 | 27755 ft | 431 kts | 197° |
| 2026-05-05 19:10 | 50.00339 | 13.25320 | 27760 ft | 432 kts | 197° |
| 2026-05-05 19:10 | 49.97453 | 13.24042 | 27760 ft | 432 kts | 196° |
| 2026-05-05 19:10 | 49.94557 | 13.22766 | 27759 ft | 432 kts | 196° |
| 2026-05-05 19:11 | 49.91670 | 13.21496 | 27759 ft | 432 kts | 196° |
| 2026-05-05 19:11 | 49.88777 | 13.20219 | 27749 ft | 432 kts | 196° |
| 2026-05-05 19:11 | 49.85879 | 13.18944 | 27743 ft | 433 kts | 196° |
| 2026-05-05 19:11 | 49.82983 | 13.17668 | 27763 ft | 433 kts | 196° |
| 2026-05-05 19:12 | 49.80080 | 13.16388 | 27763 ft | 434 kts | 196° |
| 2026-05-05 19:12 | 49.77179 | 13.15113 | 27763 ft | 434 kts | 196° |
| 2026-05-05 19:12 | 49.74268 | 13.13839 | 27764 ft | 434 kts | 196° |
| 2026-05-05 19:12 | 49.71360 | 13.12565 | 27766 ft | 434 kts | 196° |
| 2026-05-05 19:13 | 49.68447 | 13.11290 | 27773 ft | 435 kts | 196° |
| 2026-05-05 19:13 | 49.65538 | 13.10016 | 27781 ft | 434 kts | 195° |
| 2026-05-05 19:13 | 49.62629 | 13.08744 | 27788 ft | 434 kts | 195° |
| 2026-05-05 19:13 | 49.59763 | 13.07489 | 27791 ft | 434 kts | 195° |
| 2026-05-05 19:14 | 49.56866 | 13.06220 | 27800 ft | 433 kts | 195° |
| 2026-05-05 19:14 | 49.53963 | 13.04954 | 27768 ft | 433 kts | 195° |
| 2026-05-05 19:14 | 49.51062 | 13.03693 | 27446 ft | 433 kts | 195° |
| 2026-05-05 19:14 | 49.48163 | 13.02438 | 27155 ft | 433 kts | 195° |
| 2026-05-05 19:15 | 49.45255 | 13.01180 | 26736 ft | 434 kts | 195° |
| 2026-05-05 19:15 | 49.42340 | 12.99847 | 25563 ft | 439 kts | 199° |
| 2026-05-05 19:15 | 49.39538 | 12.97980 | 24680 ft | 439 kts | 205° |
| 2026-05-05 19:15 | 49.36785 | 12.95933 | 24138 ft | 441 kts | 204° |
| 2026-05-05 19:16 | 49.34016 | 12.93910 | 23598 ft | 439 kts | 204° |
| 2026-05-05 19:16 | 49.31260 | 12.91920 | 23024 ft | 436 kts | 204° |
| 2026-05-05 19:16 | 49.28521 | 12.89954 | 22400 ft | 433 kts | 204° |
| 2026-05-05 19:16 | 49.25804 | 12.88004 | 21792 ft | 430 kts | 204° |
| 2026-05-05 19:17 | 49.23109 | 12.86063 | 21202 ft | 426 kts | 205° |
| 2026-05-05 19:17 | 49.20439 | 12.84126 | 20611 ft | 423 kts | 205° |
| 2026-05-05 19:17 | 49.17788 | 12.82198 | 20043 ft | 420 kts | 205° |
| 2026-05-05 19:17 | 49.15155 | 12.80285 | 19483 ft | 418 kts | 205° |
| 2026-05-05 19:18 | 49.12531 | 12.78382 | 18927 ft | 415 kts | 205° |
| 2026-05-05 19:18 | 49.09929 | 12.76501 | 18383 ft | 413 kts | 205° |
| 2026-05-05 19:18 | 49.07335 | 12.74627 | 17812 ft | 410 kts | 205° |
| 2026-05-05 19:18 | 49.04771 | 12.72774 | 17201 ft | 406 kts | 205° |
| 2026-05-05 19:19 | 49.02233 | 12.70941 | 16593 ft | 401 kts | 205° |
| 2026-05-05 19:19 | 48.99718 | 12.69133 | 16017 ft | 397 kts | 205° |
| 2026-05-05 19:19 | 48.97230 | 12.67349 | 15439 ft | 394 kts | 205° |
| 2026-05-05 19:19 | 48.94765 | 12.65586 | 14857 ft | 390 kts | 206° |
| 2026-05-05 19:20 | 48.92314 | 12.63833 | 14318 ft | 387 kts | 206° |
| 2026-05-05 19:20 | 48.89888 | 12.62103 | 13771 ft | 383 kts | 206° |
| 2026-05-05 19:20 | 48.87484 | 12.60393 | 13190 ft | 380 kts | 206° |
| 2026-05-05 19:20 | 48.85105 | 12.58706 | 12580 ft | 376 kts | 206° |
| 2026-05-05 19:21 | 48.82745 | 12.57031 | 11983 ft | 373 kts | 206° |
| 2026-05-05 19:21 | 48.80398 | 12.55364 | 11406 ft | 371 kts | 206° |
| 2026-05-05 19:21 | 48.78066 | 12.53707 | 10932 ft | 368 kts | 206° |
| 2026-05-05 19:21 | 48.75716 | 12.52170 | 10787 ft | 369 kts | 201° |
| 2026-05-05 19:22 | 48.73292 | 12.50873 | 10753 ft | 370 kts | 201° |
| 2026-05-05 19:22 | 48.70887 | 12.49583 | 10502 ft | 359 kts | 201° |
| 2026-05-05 19:22 | 48.68609 | 12.48361 | 10263 ft | 343 kts | 201° |
| 2026-05-05 19:22 | 48.66404 | 12.47179 | 10026 ft | 329 kts | 201° |
| 2026-05-05 19:23 | 48.64288 | 12.46043 | 9750 ft | 318 kts | 201° |
| 2026-05-05 19:23 | 48.62223 | 12.44940 | 9351 ft | 311 kts | 201° |
| 2026-05-05 19:23 | 48.60204 | 12.43837 | 8967 ft | 306 kts | 201° |
| 2026-05-05 19:23 | 48.58216 | 12.42750 | 8574 ft | 301 kts | 201° |
| 2026-05-05 19:24 | 48.56263 | 12.41689 | 8191 ft | 296 kts | 201° |
| 2026-05-05 19:24 | 48.54350 | 12.40655 | 7828 ft | 286 kts | 201° |
| 2026-05-05 19:24 | 48.52529 | 12.39667 | 7529 ft | 271 kts | 202° |
| 2026-05-05 19:24 | 48.50765 | 12.38916 | 7232 ft | 259 kts | 189° |
| 2026-05-05 19:25 | 48.49002 | 12.38745 | 6943 ft | 248 kts | 185° |
| 2026-05-05 19:25 | 48.47303 | 12.38657 | 6658 ft | 243 kts | 185° |
| 2026-05-05 19:25 | 48.45614 | 12.38582 | 6367 ft | 242 kts | 185° |
| 2026-05-05 19:25 | 48.43937 | 12.38506 | 6069 ft | 241 kts | 185° |
| 2026-05-05 19:26 | 48.42262 | 12.38437 | 5753 ft | 241 kts | 185° |
| 2026-05-05 19:26 | 48.40585 | 12.38368 | 5456 ft | 242 kts | 185° |
| 2026-05-05 19:26 | 48.38941 | 12.38008 | 5151 ft | 236 kts | 206° |
| 2026-05-05 19:26 | 48.37708 | 12.36518 | 5006 ft | 228 kts | 240° |
| 2026-05-05 19:27 | 48.37258 | 12.34292 | 4997 ft | 225 kts | 272° |
| 2026-05-05 19:27 | 48.37724 | 12.32072 | 5003 ft | 226 kts | 295° |
| 2026-05-05 19:27 | 48.38373 | 12.29918 | 5002 ft | 226 kts | 294° |
| 2026-05-05 19:27 | 48.39012 | 12.27747 | 5003 ft | 226 kts | 293° |
| 2026-05-05 19:28 | 48.39587 | 12.25550 | 5000 ft | 226 kts | 283° |
| 2026-05-05 19:28 | 48.39709 | 12.23204 | 5003 ft | 225 kts | 268° |
| 2026-05-05 19:28 | 48.39581 | 12.20930 | 4998 ft | 210 kts | 265° |
| 2026-05-05 19:28 | 48.39420 | 12.18785 | 5005 ft | 205 kts | 264° |
| 2026-05-05 19:29 | 48.39263 | 12.16663 | 5006 ft | 204 kts | 264° |
| 2026-05-05 19:29 | 48.39107 | 12.14541 | 5005 ft | 204 kts | 264° |
| 2026-05-05 19:29 | 48.38954 | 12.12450 | 5007 ft | 203 kts | 264° |
| 2026-05-05 19:29 | 48.38800 | 12.10356 | 4998 ft | 201 kts | 264° |
| 2026-05-05 19:30 | 48.38647 | 12.08278 | 4829 ft | 197 kts | 264° |
| 2026-05-05 19:30 | 48.38497 | 12.06248 | 4601 ft | 194 kts | 264° |
| 2026-05-05 19:30 | 48.38350 | 12.04268 | 4355 ft | 188 kts | 264° |
| 2026-05-05 19:30 | 48.38207 | 12.02342 | 4098 ft | 182 kts | 265° |
| 2026-05-05 19:31 | 48.38071 | 12.00509 | 3864 ft | 171 kts | 265° |
| 2026-05-05 19:31 | 48.37944 | 11.98810 | 3652 ft | 155 kts | 265° |
| 2026-05-05 19:31 | 48.37831 | 11.97297 | 3460 ft | 138 kts | 265° |
| 2026-05-05 19:31 | 48.37726 | 11.95894 | 3282 ft | 133 kts | 265° |
| 2026-05-05 19:32 | 48.37624 | 11.94529 | 3112 ft | 130 kts | 265° |
| 2026-05-05 19:32 | 48.37523 | 11.93180 | 2941 ft | 129 kts | 266° |
| 2026-05-05 19:32 | 48.37422 | 11.91841 | 2771 ft | 129 kts | 265° |
| 2026-05-05 19:32 | 48.37322 | 11.90508 | 2597 ft | 128 kts | 265° |
| 2026-05-05 19:33 | 48.37221 | 11.89171 | 2417 ft | 129 kts | 264° |
| 2026-05-05 19:33 | 48.37119 | 11.87826 | 2252 ft | 131 kts | 263° |
| 2026-05-05 19:33 | 48.37014 | 11.86456 | 2089 ft | 131 kts | 264° |
| 2026-05-05 19:33 | 48.36911 | 11.85088 | 1875 ft | 133 kts | 263° |
| 2026-05-05 19:34 | 48.36811 | 11.83718 | 1707 ft | 131 kts | 264° |
| 2026-05-05 19:34 | 48.36713 | 11.82370 | 1559 ft | 128 kts | 263° |
| 2026-05-05 19:34 | 48.36613 | 11.81108 | 1487 ft | 108 kts | 262° |
| 2026-05-05 19:35 | 48.36490 | 11.79810 | 1482 ft | 27 kts | 245° |
| 2026-05-05 19:35 | 48.36386 | 11.79575 | 1481 ft | 27 kts | 234° |
| 2026-05-05 19:35 | 48.36297 | 11.79392 | 1485 ft | 20 kts | 232° |
| 2026-05-05 19:35 | 48.36215 | 11.79297 | 1485 ft | 14 kts | 186° |
| 2026-05-05 19:36 | 48.36151 | 11.79305 | 1485 ft | 2 kts | 174° |
| 2026-05-05 19:37 | 48.36150 | 11.79305 | 1485 ft | 0 kts | 174° |
| 2026-05-05 19:37 | 48.36134 | 11.79307 | 1482 ft | 5 kts | 174° |
| 2026-05-05 19:37 | 48.36100 | 11.79341 | 1478 ft | 9 kts | 120° |
| 2026-05-05 19:38 | 48.36100 | 11.79407 | 1485 ft | 0 kts | 80° |
| 2026-05-05 19:38 | 48.36101 | 11.79410 | 1485 ft | 1 kts | 80° |
| 2026-05-05 19:38 | 48.36102 | 11.79446 | 1480 ft | 8 kts | 97° |
| 2026-05-05 19:38 | 48.36028 | 11.79490 | 1485 ft | 17 kts | 174° |
| 2026-05-05 19:39 | 48.35909 | 11.79510 | 1485 ft | 17 kts | 173° |
| 2026-05-05 19:39 | 48.35803 | 11.79565 | 1485 ft | 16 kts | 116° |
| 2026-05-05 19:39 | 48.35812 | 11.79732 | 1485 ft | 16 kts | 81° |
| 2026-05-05 19:39 | 48.35825 | 11.79906 | 1485 ft | 17 kts | 86° |
| 2026-05-05 19:40 | 48.35800 | 11.80057 | 1485 ft | 16 kts | 154° |
| 2026-05-05 19:40 | 48.35690 | 11.80090 | 1484 ft | 16 kts | 165° |
| 2026-05-05 19:40 | 48.35581 | 11.80111 | 1480 ft | 10 kts | 174° |
| 2026-05-05 19:40 | 48.35571 | 11.80112 | 1476 ft | 0 kts | 174° |
| 2026-05-05 19:41 | 48.35551 | 11.80116 | 1485 ft | 6 kts | 173° |
| 2026-05-05 19:41 | 48.35516 | 11.80098 | 1485 ft | 6 kts | 233° |
| 2026-05-05 19:41 | 48.35510 | 11.80039 | 1482 ft | 6 kts | 265° |
| 2026-05-05 19:42 | 48.35507 | 11.80007 | 1485 ft | 1 kts | 263° |
| 2026-05-05 19:42 | 48.35507 | 11.80005 | 1481 ft | 0 kts | 263° |